<?xml version="1.0" encoding="UTF-8" standalone="no" ?>
<gpx xmlns="http://www.topografix.com/GPX/1/1" xmlns:xsi="http://www.w3.org/2001/XMLSchema-instance" xsi:schemaLocation="http://www.topografix.com/GPX/1/1 http://www.topografix.com/GPX/1/1/gpx.xsd" version="1.1" creator="VisuGPX - https://www.visugpx.com">
  <metadata>
    <name>refuge Bassegode Pic Escalero Pic Bassegode</name>
    <desc><![CDATA[grp_trc:]]></desc>
  </metadata>
  <trk>
    <name><![CDATA[24 juin 2022]]></name>
    <cmt><![CDATA[07:57:19]]></cmt>
    <desc><![CDATA[comment ...]]></desc>
    <trkseg>
      <trkpt lat="42.31069" lon="2.64226">
        <ele>808</ele>
        <time>2022-06-24T05:57:15Z</time>
      </trkpt>
      <trkpt lat="42.31073" lon="2.64257">
        <ele>818</ele>
        <time>2022-06-24T05:59:05Z</time>
      </trkpt>
      <trkpt lat="42.31086" lon="2.64282">
        <ele>816</ele>
        <time>2022-06-24T05:59:28Z</time>
      </trkpt>
      <trkpt lat="42.31118" lon="2.64327">
        <ele>815</ele>
        <time>2022-06-24T06:00:05Z</time>
      </trkpt>
      <trkpt lat="42.31151" lon="2.64366">
        <ele>818</ele>
        <time>2022-06-24T06:00:45Z</time>
      </trkpt>
      <trkpt lat="42.31164" lon="2.64391">
        <ele>818</ele>
        <time>2022-06-24T06:01:16Z</time>
      </trkpt>
      <trkpt lat="42.31164" lon="2.64423">
        <ele>817</ele>
        <time>2022-06-24T06:01:39Z</time>
      </trkpt>
      <trkpt lat="42.31158" lon="2.64453">
        <ele>820</ele>
        <time>2022-06-24T06:02:03Z</time>
      </trkpt>
      <trkpt lat="42.31156" lon="2.64484">
        <ele>821</ele>
        <time>2022-06-24T06:02:21Z</time>
      </trkpt>
      <trkpt lat="42.31166" lon="2.64512">
        <ele>823</ele>
        <time>2022-06-24T06:02:43Z</time>
      </trkpt>
      <trkpt lat="42.31168" lon="2.64543">
        <ele>825</ele>
        <time>2022-06-24T06:03:12Z</time>
      </trkpt>
      <trkpt lat="42.31165" lon="2.64574">
        <ele>827</ele>
        <time>2022-06-24T06:03:58Z</time>
      </trkpt>
      <trkpt lat="42.31172" lon="2.64603">
        <ele>832</ele>
        <time>2022-06-24T06:05:21Z</time>
      </trkpt>
      <trkpt lat="42.31171" lon="2.64634">
        <ele>824</ele>
        <time>2022-06-24T06:06:01Z</time>
      </trkpt>
      <trkpt lat="42.31178" lon="2.64664">
        <ele>824</ele>
        <time>2022-06-24T06:06:20Z</time>
      </trkpt>
      <trkpt lat="42.31193" lon="2.64687">
        <ele>823</ele>
        <time>2022-06-24T06:06:35Z</time>
      </trkpt>
      <trkpt lat="42.31199" lon="2.64718">
        <ele>822</ele>
        <time>2022-06-24T06:06:54Z</time>
      </trkpt>
      <trkpt lat="42.31206" lon="2.64748">
        <ele>820</ele>
        <time>2022-06-24T06:07:14Z</time>
      </trkpt>
      <trkpt lat="42.31214" lon="2.64778">
        <ele>818</ele>
        <time>2022-06-24T06:07:30Z</time>
      </trkpt>
      <trkpt lat="42.31222" lon="2.64807">
        <ele>821</ele>
        <time>2022-06-24T06:07:51Z</time>
      </trkpt>
      <trkpt lat="42.31234" lon="2.64833">
        <ele>822</ele>
        <time>2022-06-24T06:08:12Z</time>
      </trkpt>
      <trkpt lat="42.3125" lon="2.64856">
        <ele>818</ele>
        <time>2022-06-24T06:10:33Z</time>
      </trkpt>
      <trkpt lat="42.31261" lon="2.64884">
        <ele>824</ele>
        <time>2022-06-24T06:10:56Z</time>
      </trkpt>
      <trkpt lat="42.31276" lon="2.64907">
        <ele>823</ele>
        <time>2022-06-24T06:11:16Z</time>
      </trkpt>
      <trkpt lat="42.3129" lon="2.6493">
        <ele>824</ele>
        <time>2022-06-24T06:11:39Z</time>
      </trkpt>
      <trkpt lat="42.31304" lon="2.64956">
        <ele>823</ele>
        <time>2022-06-24T06:12:01Z</time>
      </trkpt>
      <trkpt lat="42.31304" lon="2.64986">
        <ele>826</ele>
        <time>2022-06-24T06:12:36Z</time>
      </trkpt>
      <trkpt lat="42.31321" lon="2.65043">
        <ele>824</ele>
        <time>2022-06-24T06:13:53Z</time>
      </trkpt>
      <trkpt lat="42.31317" lon="2.65073">
        <ele>827</ele>
        <time>2022-06-24T06:14:22Z</time>
      </trkpt>
      <trkpt lat="42.31325" lon="2.65102">
        <ele>826</ele>
        <time>2022-06-24T06:14:56Z</time>
      </trkpt>
      <trkpt lat="42.31328" lon="2.65132">
        <ele>834</ele>
        <time>2022-06-24T06:15:50Z</time>
      </trkpt>
      <trkpt lat="42.31336" lon="2.65161">
        <ele>836</ele>
        <time>2022-06-24T06:16:29Z</time>
      </trkpt>
      <trkpt lat="42.31338" lon="2.65191">
        <ele>849</ele>
        <time>2022-06-24T06:17:35Z</time>
      </trkpt>
      <trkpt lat="42.31346" lon="2.65221">
        <ele>850</ele>
        <time>2022-06-24T06:18:19Z</time>
      </trkpt>
      <trkpt lat="42.3135" lon="2.65252">
        <ele>851</ele>
        <time>2022-06-24T06:18:46Z</time>
      </trkpt>
      <trkpt lat="42.31357" lon="2.65281">
        <ele>857</ele>
        <time>2022-06-24T06:19:14Z</time>
      </trkpt>
      <trkpt lat="42.31362" lon="2.65311">
        <ele>860</ele>
        <time>2022-06-24T06:19:38Z</time>
      </trkpt>
      <trkpt lat="42.3136" lon="2.65342">
        <ele>868</ele>
        <time>2022-06-24T06:20:05Z</time>
      </trkpt>
      <trkpt lat="42.31364" lon="2.65372">
        <ele>867</ele>
        <time>2022-06-24T06:20:27Z</time>
      </trkpt>
      <trkpt lat="42.31372" lon="2.65401">
        <ele>864</ele>
        <time>2022-06-24T06:20:51Z</time>
      </trkpt>
      <trkpt lat="42.31378" lon="2.65431">
        <ele>863</ele>
        <time>2022-06-24T06:21:29Z</time>
      </trkpt>
      <trkpt lat="42.31394" lon="2.65452">
        <ele>862</ele>
        <time>2022-06-24T06:22:14Z</time>
      </trkpt>
      <trkpt lat="42.3139" lon="2.65482">
        <ele>869</ele>
        <time>2022-06-24T06:22:58Z</time>
      </trkpt>
      <trkpt lat="42.31391" lon="2.65513">
        <ele>874</ele>
        <time>2022-06-24T06:23:47Z</time>
      </trkpt>
      <trkpt lat="42.31381" lon="2.65541">
        <ele>879</ele>
        <time>2022-06-24T06:24:31Z</time>
      </trkpt>
      <trkpt lat="42.31395" lon="2.65565">
        <ele>882</ele>
        <time>2022-06-24T06:25:07Z</time>
      </trkpt>
      <trkpt lat="42.31413" lon="2.65586">
        <ele>885</ele>
        <time>2022-06-24T06:25:54Z</time>
      </trkpt>
      <trkpt lat="42.31434" lon="2.65595">
        <ele>893</ele>
        <time>2022-06-24T06:26:48Z</time>
      </trkpt>
      <trkpt lat="42.31447" lon="2.6557">
        <ele>898</ele>
        <time>2022-06-24T06:27:23Z</time>
      </trkpt>
      <trkpt lat="42.3147" lon="2.65572">
        <ele>911</ele>
        <time>2022-06-24T06:28:33Z</time>
      </trkpt>
      <trkpt lat="42.31489" lon="2.65588">
        <ele>927</ele>
        <time>2022-06-24T06:29:47Z</time>
      </trkpt>
      <trkpt lat="42.31512" lon="2.65588">
        <ele>933</ele>
        <time>2022-06-24T06:30:33Z</time>
      </trkpt>
      <trkpt lat="42.31535" lon="2.65582">
        <ele>933</ele>
        <time>2022-06-24T06:31:15Z</time>
      </trkpt>
      <trkpt lat="42.31556" lon="2.65593">
        <ele>936</ele>
        <time>2022-06-24T06:32:06Z</time>
      </trkpt>
      <trkpt lat="42.31575" lon="2.65611">
        <ele>943</ele>
        <time>2022-06-24T06:32:52Z</time>
      </trkpt>
      <trkpt lat="42.31593" lon="2.6563">
        <ele>951</ele>
        <time>2022-06-24T06:33:49Z</time>
      </trkpt>
      <trkpt lat="42.31609" lon="2.65652">
        <ele>958</ele>
        <time>2022-06-24T06:34:43Z</time>
      </trkpt>
      <trkpt lat="42.31631" lon="2.65661">
        <ele>964</ele>
        <time>2022-06-24T06:35:31Z</time>
      </trkpt>
      <trkpt lat="42.31649" lon="2.65681">
        <ele>979</ele>
        <time>2022-06-24T06:40:01Z</time>
      </trkpt>
      <trkpt lat="42.31669" lon="2.65696">
        <ele>981</ele>
        <time>2022-06-24T06:40:41Z</time>
      </trkpt>
      <trkpt lat="42.31685" lon="2.65718">
        <ele>983</ele>
        <time>2022-06-24T06:41:16Z</time>
      </trkpt>
      <trkpt lat="42.31702" lon="2.65739">
        <ele>984</ele>
        <time>2022-06-24T06:41:53Z</time>
      </trkpt>
      <trkpt lat="42.31719" lon="2.65758">
        <ele>983</ele>
        <time>2022-06-24T06:42:20Z</time>
      </trkpt>
      <trkpt lat="42.31741" lon="2.65768">
        <ele>984</ele>
        <time>2022-06-24T06:42:54Z</time>
      </trkpt>
      <trkpt lat="42.31759" lon="2.65787">
        <ele>990</ele>
        <time>2022-06-24T06:44:20Z</time>
      </trkpt>
      <trkpt lat="42.31769" lon="2.65814">
        <ele>994</ele>
        <time>2022-06-24T06:45:08Z</time>
      </trkpt>
      <trkpt lat="42.31768" lon="2.65845">
        <ele>1000</ele>
        <time>2022-06-24T06:45:46Z</time>
      </trkpt>
      <trkpt lat="42.3178" lon="2.6587">
        <ele>1005</ele>
        <time>2022-06-24T06:46:25Z</time>
      </trkpt>
      <trkpt lat="42.31802" lon="2.65877">
        <ele>1011</ele>
        <time>2022-06-24T06:46:59Z</time>
      </trkpt>
      <trkpt lat="42.31822" lon="2.65894">
        <ele>1013</ele>
        <time>2022-06-24T06:47:30Z</time>
      </trkpt>
      <trkpt lat="42.31834" lon="2.65919">
        <ele>1017</ele>
        <time>2022-06-24T06:48:07Z</time>
      </trkpt>
      <trkpt lat="42.31833" lon="2.6595">
        <ele>1025</ele>
        <time>2022-06-24T06:48:44Z</time>
      </trkpt>
      <trkpt lat="42.31833" lon="2.65981">
        <ele>1026</ele>
        <time>2022-06-24T06:49:34Z</time>
      </trkpt>
      <trkpt lat="42.31843" lon="2.66008">
        <ele>1029</ele>
        <time>2022-06-24T06:50:23Z</time>
      </trkpt>
      <trkpt lat="42.31851" lon="2.66037">
        <ele>1034</ele>
        <time>2022-06-24T06:51:54Z</time>
      </trkpt>
      <trkpt lat="42.31866" lon="2.6606">
        <ele>1025</ele>
        <time>2022-06-24T06:52:25Z</time>
      </trkpt>
      <trkpt lat="42.31901" lon="2.66099">
        <ele>1022</ele>
        <time>2022-06-24T06:53:20Z</time>
      </trkpt>
      <trkpt lat="42.31912" lon="2.66125">
        <ele>1024</ele>
        <time>2022-06-24T06:53:56Z</time>
      </trkpt>
      <trkpt lat="42.31911" lon="2.66156">
        <ele>1026</ele>
        <time>2022-06-24T06:54:36Z</time>
      </trkpt>
      <trkpt lat="42.31918" lon="2.66186">
        <ele>1014</ele>
        <time>2022-06-24T06:59:06Z</time>
      </trkpt>
      <trkpt lat="42.31915" lon="2.66217">
        <ele>1016</ele>
        <time>2022-06-24T06:59:37Z</time>
      </trkpt>
      <trkpt lat="42.3191" lon="2.66247">
        <ele>1013</ele>
        <time>2022-06-24T07:00:00Z</time>
      </trkpt>
      <trkpt lat="42.31901" lon="2.66275">
        <ele>1004</ele>
        <time>2022-06-24T07:00:30Z</time>
      </trkpt>
      <trkpt lat="42.319" lon="2.66306">
        <ele>1001</ele>
        <time>2022-06-24T07:01:06Z</time>
      </trkpt>
      <trkpt lat="42.31901" lon="2.66338">
        <ele>998</ele>
        <time>2022-06-24T07:01:49Z</time>
      </trkpt>
      <trkpt lat="42.31923" lon="2.66332">
        <ele>994</ele>
        <time>2022-06-24T07:02:29Z</time>
      </trkpt>
      <trkpt lat="42.31933" lon="2.66305">
        <ele>994</ele>
        <time>2022-06-24T07:03:17Z</time>
      </trkpt>
      <trkpt lat="42.31947" lon="2.6628">
        <ele>995</ele>
        <time>2022-06-24T07:04:05Z</time>
      </trkpt>
      <trkpt lat="42.31967" lon="2.66266">
        <ele>1003</ele>
        <time>2022-06-24T07:06:25Z</time>
      </trkpt>
      <trkpt lat="42.31989" lon="2.66257">
        <ele>1003</ele>
        <time>2022-06-24T07:07:04Z</time>
      </trkpt>
      <trkpt lat="42.32" lon="2.66231">
        <ele>1003</ele>
        <time>2022-06-24T07:07:40Z</time>
      </trkpt>
      <trkpt lat="42.32023" lon="2.66229">
        <ele>1003</ele>
        <time>2022-06-24T07:08:40Z</time>
      </trkpt>
      <trkpt lat="42.32042" lon="2.66211">
        <ele>1008</ele>
        <time>2022-06-24T07:09:25Z</time>
      </trkpt>
      <trkpt lat="42.32063" lon="2.66201">
        <ele>1015</ele>
        <time>2022-06-24T07:10:03Z</time>
      </trkpt>
      <trkpt lat="42.32082" lon="2.66186">
        <ele>1018</ele>
        <time>2022-06-24T07:10:38Z</time>
      </trkpt>
      <trkpt lat="42.32105" lon="2.66185">
        <ele>1022</ele>
        <time>2022-06-24T07:11:19Z</time>
      </trkpt>
      <trkpt lat="42.32127" lon="2.66192">
        <ele>1033</ele>
        <time>2022-06-24T07:12:36Z</time>
      </trkpt>
      <trkpt lat="42.32136" lon="2.66164">
        <ele>1051</ele>
        <time>2022-06-24T07:16:32Z</time>
      </trkpt>
      <trkpt lat="42.32133" lon="2.66134">
        <ele>1055</ele>
        <time>2022-06-24T07:17:34Z</time>
      </trkpt>
      <trkpt lat="42.32112" lon="2.66122">
        <ele>1076</ele>
        <time>2022-06-24T07:19:16Z</time>
      </trkpt>
      <trkpt lat="42.32089" lon="2.66119">
        <ele>1087</ele>
        <time>2022-06-24T07:21:07Z</time>
      </trkpt>
      <trkpt lat="42.32067" lon="2.66113">
        <ele>1098</ele>
        <time>2022-06-24T07:22:26Z</time>
      </trkpt>
      <trkpt lat="42.32046" lon="2.66103">
        <ele>1112</ele>
        <time>2022-06-24T07:24:20Z</time>
      </trkpt>
      <trkpt lat="42.32034" lon="2.66077">
        <ele>1133</ele>
        <time>2022-06-24T07:26:21Z</time>
      </trkpt>
      <trkpt lat="42.32015" lon="2.66095">
        <ele>1143</ele>
        <time>2022-06-24T07:27:53Z</time>
      </trkpt>
      <trkpt lat="42.32008" lon="2.66067">
        <ele>1151</ele>
        <time>2022-06-24T07:29:27Z</time>
      </trkpt>
      <trkpt lat="42.32002" lon="2.66037">
        <ele>1155</ele>
        <time>2022-06-24T07:35:19Z</time>
      </trkpt>
      <trkpt lat="42.31999" lon="2.66006">
        <ele>1153</ele>
        <time>2022-06-24T07:36:16Z</time>
      </trkpt>
      <trkpt lat="42.31995" lon="2.65976">
        <ele>1153</ele>
        <time>2022-06-24T07:37:09Z</time>
      </trkpt>
      <trkpt lat="42.31988" lon="2.65947">
        <ele>1155</ele>
        <time>2022-06-24T07:37:40Z</time>
      </trkpt>
      <trkpt lat="42.31978" lon="2.65918">
        <ele>1157</ele>
        <time>2022-06-24T07:38:10Z</time>
      </trkpt>
      <trkpt lat="42.31966" lon="2.65858">
        <ele>1157</ele>
        <time>2022-06-24T07:39:15Z</time>
      </trkpt>
      <trkpt lat="42.31956" lon="2.65831">
        <ele>1156</ele>
        <time>2022-06-24T07:40:05Z</time>
      </trkpt>
      <trkpt lat="42.31953" lon="2.658">
        <ele>1154</ele>
        <time>2022-06-24T07:40:56Z</time>
      </trkpt>
      <trkpt lat="42.31948" lon="2.6577">
        <ele>1153</ele>
        <time>2022-06-24T07:41:30Z</time>
      </trkpt>
      <trkpt lat="42.31943" lon="2.6574">
        <ele>1157</ele>
        <time>2022-06-24T07:42:14Z</time>
      </trkpt>
      <trkpt lat="42.31946" lon="2.6571">
        <ele>1163</ele>
        <time>2022-06-24T07:42:47Z</time>
      </trkpt>
      <trkpt lat="42.31935" lon="2.65683">
        <ele>1164</ele>
        <time>2022-06-24T07:43:46Z</time>
      </trkpt>
      <trkpt lat="42.31934" lon="2.65622">
        <ele>1166</ele>
        <time>2022-06-24T07:44:44Z</time>
      </trkpt>
      <trkpt lat="42.31928" lon="2.65593">
        <ele>1169</ele>
        <time>2022-06-24T07:45:30Z</time>
      </trkpt>
      <trkpt lat="42.31916" lon="2.65567">
        <ele>1173</ele>
        <time>2022-06-24T07:46:22Z</time>
      </trkpt>
      <trkpt lat="42.31914" lon="2.65536">
        <ele>1177</ele>
        <time>2022-06-24T07:47:19Z</time>
      </trkpt>
      <trkpt lat="42.31901" lon="2.65511">
        <ele>1176</ele>
        <time>2022-06-24T07:48:08Z</time>
      </trkpt>
      <trkpt lat="42.31894" lon="2.65482">
        <ele>1175</ele>
        <time>2022-06-24T07:49:57Z</time>
      </trkpt>
      <trkpt lat="42.31897" lon="2.65451">
        <ele>1173</ele>
        <time>2022-06-24T07:50:23Z</time>
      </trkpt>
      <trkpt lat="42.31898" lon="2.6542">
        <ele>1174</ele>
        <time>2022-06-24T07:50:45Z</time>
      </trkpt>
      <trkpt lat="42.31915" lon="2.65363">
        <ele>1175</ele>
        <time>2022-06-24T07:51:29Z</time>
      </trkpt>
      <trkpt lat="42.3193" lon="2.65339">
        <ele>1174</ele>
        <time>2022-06-24T07:51:49Z</time>
      </trkpt>
      <trkpt lat="42.31938" lon="2.65309">
        <ele>1175</ele>
        <time>2022-06-24T07:52:08Z</time>
      </trkpt>
      <trkpt lat="42.31938" lon="2.65278">
        <ele>1170</ele>
        <time>2022-06-24T07:52:30Z</time>
      </trkpt>
      <trkpt lat="42.31939" lon="2.65247">
        <ele>1170</ele>
        <time>2022-06-24T07:52:54Z</time>
      </trkpt>
      <trkpt lat="42.31925" lon="2.65189">
        <ele>1172</ele>
        <time>2022-06-24T07:53:38Z</time>
      </trkpt>
      <trkpt lat="42.31922" lon="2.65159">
        <ele>1168</ele>
        <time>2022-06-24T07:54:09Z</time>
      </trkpt>
      <trkpt lat="42.31911" lon="2.65132">
        <ele>1167</ele>
        <time>2022-06-24T07:54:34Z</time>
      </trkpt>
      <trkpt lat="42.31905" lon="2.65102">
        <ele>1168</ele>
        <time>2022-06-24T07:54:57Z</time>
      </trkpt>
      <trkpt lat="42.31901" lon="2.65072">
        <ele>1164</ele>
        <time>2022-06-24T07:55:25Z</time>
      </trkpt>
      <trkpt lat="42.31898" lon="2.6504">
        <ele>1161</ele>
        <time>2022-06-24T07:55:53Z</time>
      </trkpt>
      <trkpt lat="42.31894" lon="2.6501">
        <ele>1158</ele>
        <time>2022-06-24T07:56:26Z</time>
      </trkpt>
      <trkpt lat="42.31892" lon="2.64979">
        <ele>1158</ele>
        <time>2022-06-24T07:56:50Z</time>
      </trkpt>
      <trkpt lat="42.31884" lon="2.64949">
        <ele>1152</ele>
        <time>2022-06-24T07:57:12Z</time>
      </trkpt>
      <trkpt lat="42.31871" lon="2.64922">
        <ele>1149</ele>
        <time>2022-06-24T07:57:31Z</time>
      </trkpt>
      <trkpt lat="42.31842" lon="2.64874">
        <ele>1145</ele>
        <time>2022-06-24T07:58:18Z</time>
      </trkpt>
      <trkpt lat="42.31835" lon="2.64843">
        <ele>1145</ele>
        <time>2022-06-24T07:58:40Z</time>
      </trkpt>
      <trkpt lat="42.31828" lon="2.64782">
        <ele>1146</ele>
        <time>2022-06-24T07:59:27Z</time>
      </trkpt>
      <trkpt lat="42.31814" lon="2.64757">
        <ele>1143</ele>
        <time>2022-06-24T07:59:50Z</time>
      </trkpt>
      <trkpt lat="42.31824" lon="2.64729">
        <ele>1141</ele>
        <time>2022-06-24T08:00:09Z</time>
      </trkpt>
      <trkpt lat="42.31826" lon="2.64698">
        <ele>1138</ele>
        <time>2022-06-24T08:00:40Z</time>
      </trkpt>
      <trkpt lat="42.31824" lon="2.64668">
        <ele>1139</ele>
        <time>2022-06-24T08:01:03Z</time>
      </trkpt>
      <trkpt lat="42.31821" lon="2.64638">
        <ele>1138</ele>
        <time>2022-06-24T08:01:26Z</time>
      </trkpt>
      <trkpt lat="42.31816" lon="2.64607">
        <ele>1135</ele>
        <time>2022-06-24T08:01:46Z</time>
      </trkpt>
      <trkpt lat="42.31811" lon="2.64577">
        <ele>1130</ele>
        <time>2022-06-24T08:02:07Z</time>
      </trkpt>
      <trkpt lat="42.31805" lon="2.64548">
        <ele>1126</ele>
        <time>2022-06-24T08:02:27Z</time>
      </trkpt>
      <trkpt lat="42.31803" lon="2.64516">
        <ele>1123</ele>
        <time>2022-06-24T08:02:46Z</time>
      </trkpt>
      <trkpt lat="42.31787" lon="2.64493">
        <ele>1123</ele>
        <time>2022-06-24T08:03:05Z</time>
      </trkpt>
      <trkpt lat="42.31769" lon="2.64472">
        <ele>1120</ele>
        <time>2022-06-24T08:03:27Z</time>
      </trkpt>
      <trkpt lat="42.31754" lon="2.6445">
        <ele>1122</ele>
        <time>2022-06-24T08:03:48Z</time>
      </trkpt>
      <trkpt lat="42.31735" lon="2.64431">
        <ele>1122</ele>
        <time>2022-06-24T08:04:10Z</time>
      </trkpt>
      <trkpt lat="42.31736" lon="2.644">
        <ele>1122</ele>
        <time>2022-06-24T08:04:31Z</time>
      </trkpt>
      <trkpt lat="42.3173" lon="2.64371">
        <ele>1123</ele>
        <time>2022-06-24T08:04:49Z</time>
      </trkpt>
      <trkpt lat="42.31727" lon="2.6434">
        <ele>1122</ele>
        <time>2022-06-24T08:05:09Z</time>
      </trkpt>
      <trkpt lat="42.31717" lon="2.64312">
        <ele>1119</ele>
        <time>2022-06-24T08:05:31Z</time>
      </trkpt>
      <trkpt lat="42.31697" lon="2.64295">
        <ele>1119</ele>
        <time>2022-06-24T08:05:53Z</time>
      </trkpt>
      <trkpt lat="42.31686" lon="2.64267">
        <ele>1118</ele>
        <time>2022-06-24T08:06:14Z</time>
      </trkpt>
      <trkpt lat="42.31682" lon="2.64237">
        <ele>1118</ele>
        <time>2022-06-24T08:06:34Z</time>
      </trkpt>
      <trkpt lat="42.31688" lon="2.64206">
        <ele>1120</ele>
        <time>2022-06-24T08:06:56Z</time>
      </trkpt>
      <trkpt lat="42.3169" lon="2.64176">
        <ele>1122</ele>
        <time>2022-06-24T08:07:18Z</time>
      </trkpt>
      <trkpt lat="42.31699" lon="2.64147">
        <ele>1123</ele>
        <time>2022-06-24T08:07:35Z</time>
      </trkpt>
      <trkpt lat="42.31696" lon="2.64116">
        <ele>1121</ele>
        <time>2022-06-24T08:08:10Z</time>
      </trkpt>
      <trkpt lat="42.31684" lon="2.6409">
        <ele>1118</ele>
        <time>2022-06-24T08:08:32Z</time>
      </trkpt>
      <trkpt lat="42.31678" lon="2.6406">
        <ele>1115</ele>
        <time>2022-06-24T08:08:53Z</time>
      </trkpt>
      <trkpt lat="42.31687" lon="2.64032">
        <ele>1109</ele>
        <time>2022-06-24T08:10:46Z</time>
      </trkpt>
      <trkpt lat="42.31709" lon="2.64019">
        <ele>1113</ele>
        <time>2022-06-24T08:11:14Z</time>
      </trkpt>
      <trkpt lat="42.31727" lon="2.64">
        <ele>1111</ele>
        <time>2022-06-24T08:11:36Z</time>
      </trkpt>
      <trkpt lat="42.31706" lon="2.64015">
        <ele>1110</ele>
        <time>2022-06-24T08:12:20Z</time>
      </trkpt>
      <trkpt lat="42.31686" lon="2.6403">
        <ele>1111</ele>
        <time>2022-06-24T08:12:41Z</time>
      </trkpt>
      <trkpt lat="42.31686" lon="2.63999">
        <ele>1112</ele>
        <time>2022-06-24T08:13:09Z</time>
      </trkpt>
      <trkpt lat="42.31687" lon="2.63968">
        <ele>1111</ele>
        <time>2022-06-24T08:13:32Z</time>
      </trkpt>
      <trkpt lat="42.31695" lon="2.63939">
        <ele>1112</ele>
        <time>2022-06-24T08:14:01Z</time>
      </trkpt>
      <trkpt lat="42.31699" lon="2.63908">
        <ele>1112</ele>
        <time>2022-06-24T08:14:30Z</time>
      </trkpt>
      <trkpt lat="42.31709" lon="2.6388">
        <ele>1113</ele>
        <time>2022-06-24T08:15:13Z</time>
      </trkpt>
      <trkpt lat="42.31709" lon="2.63849">
        <ele>1116</ele>
        <time>2022-06-24T08:15:57Z</time>
      </trkpt>
      <trkpt lat="42.31706" lon="2.63819">
        <ele>1124</ele>
        <time>2022-06-24T08:16:53Z</time>
      </trkpt>
      <trkpt lat="42.31702" lon="2.63788">
        <ele>1129</ele>
        <time>2022-06-24T08:17:30Z</time>
      </trkpt>
      <trkpt lat="42.31698" lon="2.63758">
        <ele>1136</ele>
        <time>2022-06-24T08:18:16Z</time>
      </trkpt>
      <trkpt lat="42.31686" lon="2.63732">
        <ele>1144</ele>
        <time>2022-06-24T08:18:52Z</time>
      </trkpt>
      <trkpt lat="42.31666" lon="2.63718">
        <ele>1151</ele>
        <time>2022-06-24T08:19:32Z</time>
      </trkpt>
      <trkpt lat="42.31648" lon="2.63699">
        <ele>1154</ele>
        <time>2022-06-24T08:20:14Z</time>
      </trkpt>
      <trkpt lat="42.31649" lon="2.63668">
        <ele>1165</ele>
        <time>2022-06-24T08:21:30Z</time>
      </trkpt>
      <trkpt lat="42.31645" lon="2.63638">
        <ele>1160</ele>
        <time>2022-06-24T08:21:54Z</time>
      </trkpt>
      <trkpt lat="42.31636" lon="2.6361">
        <ele>1161</ele>
        <time>2022-06-24T08:22:30Z</time>
      </trkpt>
      <trkpt lat="42.31641" lon="2.6358">
        <ele>1167</ele>
        <time>2022-06-24T08:23:14Z</time>
      </trkpt>
      <trkpt lat="42.31642" lon="2.6355">
        <ele>1175</ele>
        <time>2022-06-24T08:24:00Z</time>
      </trkpt>
      <trkpt lat="42.31628" lon="2.63526">
        <ele>1181</ele>
        <time>2022-06-24T08:24:31Z</time>
      </trkpt>
      <trkpt lat="42.31619" lon="2.63498">
        <ele>1185</ele>
        <time>2022-06-24T08:24:55Z</time>
      </trkpt>
      <trkpt lat="42.31609" lon="2.63469">
        <ele>1187</ele>
        <time>2022-06-24T08:25:18Z</time>
      </trkpt>
      <trkpt lat="42.316" lon="2.63442">
        <ele>1190</ele>
        <time>2022-06-24T08:25:40Z</time>
      </trkpt>
      <trkpt lat="42.31599" lon="2.63411">
        <ele>1194</ele>
        <time>2022-06-24T08:26:06Z</time>
      </trkpt>
      <trkpt lat="42.31593" lon="2.63381">
        <ele>1197</ele>
        <time>2022-06-24T08:30:04Z</time>
      </trkpt>
      <trkpt lat="42.31574" lon="2.63362">
        <ele>1199</ele>
        <time>2022-06-24T08:30:36Z</time>
      </trkpt>
      <trkpt lat="42.31554" lon="2.63349">
        <ele>1204</ele>
        <time>2022-06-24T08:31:17Z</time>
      </trkpt>
      <trkpt lat="42.31534" lon="2.63333">
        <ele>1203</ele>
        <time>2022-06-24T08:31:53Z</time>
      </trkpt>
      <trkpt lat="42.31514" lon="2.63319">
        <ele>1225</ele>
        <time>2022-06-24T08:33:01Z</time>
      </trkpt>
      <trkpt lat="42.31495" lon="2.63303">
        <ele>1228</ele>
        <time>2022-06-24T08:34:15Z</time>
      </trkpt>
      <trkpt lat="42.31472" lon="2.633">
        <ele>1225</ele>
        <time>2022-06-24T08:34:59Z</time>
      </trkpt>
      <trkpt lat="42.31455" lon="2.63281">
        <ele>1226</ele>
        <time>2022-06-24T08:35:57Z</time>
      </trkpt>
      <trkpt lat="42.31432" lon="2.63283">
        <ele>1272</ele>
        <time>2022-06-24T08:39:08Z</time>
      </trkpt>
      <trkpt lat="42.31413" lon="2.63266">
        <ele>1283</ele>
        <time>2022-06-24T08:40:17Z</time>
      </trkpt>
      <trkpt lat="42.31399" lon="2.63242">
        <ele>1297</ele>
        <time>2022-06-24T08:41:36Z</time>
      </trkpt>
      <trkpt lat="42.3138" lon="2.63226">
        <ele>1310</ele>
        <time>2022-06-24T08:42:45Z</time>
      </trkpt>
      <trkpt lat="42.3136" lon="2.63209">
        <ele>1317</ele>
        <time>2022-06-24T08:43:53Z</time>
      </trkpt>
      <trkpt lat="42.31345" lon="2.63186">
        <ele>1328</ele>
        <time>2022-06-24T08:44:51Z</time>
      </trkpt>
      <trkpt lat="42.31326" lon="2.63168">
        <ele>1330</ele>
        <time>2022-06-24T08:45:41Z</time>
      </trkpt>
      <trkpt lat="42.31307" lon="2.6315">
        <ele>1335</ele>
        <time>2022-06-24T08:46:27Z</time>
      </trkpt>
      <trkpt lat="42.31289" lon="2.63131">
        <ele>1342</ele>
        <time>2022-06-24T08:47:12Z</time>
      </trkpt>
      <trkpt lat="42.31293" lon="2.63101">
        <ele>1370</ele>
        <time>2022-06-24T08:53:06Z</time>
      </trkpt>
      <trkpt lat="42.31282" lon="2.63074">
        <ele>1378</ele>
        <time>2022-06-24T08:54:45Z</time>
      </trkpt>
      <trkpt lat="42.31271" lon="2.63077">
        <ele>1376</ele>
        <time>2022-06-24T09:22:11Z</time>
      </trkpt>
      <trkpt lat="42.31268" lon="2.63047">
        <ele>1375</ele>
        <time>2022-06-24T09:22:59Z</time>
      </trkpt>
      <trkpt lat="42.31277" lon="2.63074">
        <ele>1377</ele>
        <time>2022-06-24T09:25:34Z</time>
      </trkpt>
      <trkpt lat="42.31287" lon="2.63102">
        <ele>1378</ele>
        <time>2022-06-24T09:29:27Z</time>
      </trkpt>
      <trkpt lat="42.31292" lon="2.63132">
        <ele>1358</ele>
        <time>2022-06-24T09:32:59Z</time>
      </trkpt>
      <trkpt lat="42.31271" lon="2.63121">
        <ele>1342</ele>
        <time>2022-06-24T09:35:40Z</time>
      </trkpt>
      <trkpt lat="42.31251" lon="2.63106">
        <ele>1335</ele>
        <time>2022-06-24T09:36:23Z</time>
      </trkpt>
      <trkpt lat="42.31229" lon="2.63095">
        <ele>1333</ele>
        <time>2022-06-24T09:37:00Z</time>
      </trkpt>
      <trkpt lat="42.31224" lon="2.63065">
        <ele>1330</ele>
        <time>2022-06-24T09:38:03Z</time>
      </trkpt>
      <trkpt lat="42.3121" lon="2.6304">
        <ele>1323</ele>
        <time>2022-06-24T09:38:39Z</time>
      </trkpt>
      <trkpt lat="42.31199" lon="2.63014">
        <ele>1322</ele>
        <time>2022-06-24T09:39:10Z</time>
      </trkpt>
      <trkpt lat="42.31184" lon="2.6299">
        <ele>1312</ele>
        <time>2022-06-24T09:40:22Z</time>
      </trkpt>
      <trkpt lat="42.31166" lon="2.62971">
        <ele>1304</ele>
        <time>2022-06-24T09:41:26Z</time>
      </trkpt>
      <trkpt lat="42.31152" lon="2.62947">
        <ele>1300</ele>
        <time>2022-06-24T09:42:23Z</time>
      </trkpt>
      <trkpt lat="42.31137" lon="2.62924">
        <ele>1299</ele>
        <time>2022-06-24T09:43:53Z</time>
      </trkpt>
      <trkpt lat="42.31115" lon="2.62916">
        <ele>1290</ele>
        <time>2022-06-24T09:44:48Z</time>
      </trkpt>
      <trkpt lat="42.31094" lon="2.62903">
        <ele>1275</ele>
        <time>2022-06-24T09:46:22Z</time>
      </trkpt>
      <trkpt lat="42.31072" lon="2.62904">
        <ele>1269</ele>
        <time>2022-06-24T09:47:42Z</time>
      </trkpt>
      <trkpt lat="42.3109" lon="2.62922">
        <ele>1272</ele>
        <time>2022-06-24T09:50:29Z</time>
      </trkpt>
      <trkpt lat="42.31089" lon="2.62952">
        <ele>1260</ele>
        <time>2022-06-24T09:51:46Z</time>
      </trkpt>
      <trkpt lat="42.31079" lon="2.6298">
        <ele>1250</ele>
        <time>2022-06-24T09:52:43Z</time>
      </trkpt>
      <trkpt lat="42.31071" lon="2.63008">
        <ele>1234</ele>
        <time>2022-06-24T09:54:04Z</time>
      </trkpt>
      <trkpt lat="42.31049" lon="2.63">
        <ele>1217</ele>
        <time>2022-06-24T09:55:11Z</time>
      </trkpt>
      <trkpt lat="42.31026" lon="2.62997">
        <ele>1210</ele>
        <time>2022-06-24T09:56:07Z</time>
      </trkpt>
      <trkpt lat="42.31005" lon="2.63009">
        <ele>1188</ele>
        <time>2022-06-24T09:57:51Z</time>
      </trkpt>
      <trkpt lat="42.30984" lon="2.63022">
        <ele>1172</ele>
        <time>2022-06-24T09:59:01Z</time>
      </trkpt>
      <trkpt lat="42.30962" lon="2.63018">
        <ele>1149</ele>
        <time>2022-06-24T10:00:22Z</time>
      </trkpt>
      <trkpt lat="42.30941" lon="2.6303">
        <ele>1129</ele>
        <time>2022-06-24T10:01:38Z</time>
      </trkpt>
      <trkpt lat="42.30918" lon="2.63034">
        <ele>1124</ele>
        <time>2022-06-24T10:02:28Z</time>
      </trkpt>
      <trkpt lat="42.30904" lon="2.63057">
        <ele>1118</ele>
        <time>2022-06-24T10:03:16Z</time>
      </trkpt>
      <trkpt lat="42.30884" lon="2.63071">
        <ele>1096</ele>
        <time>2022-06-24T10:04:26Z</time>
      </trkpt>
      <trkpt lat="42.30862" lon="2.6308">
        <ele>1077</ele>
        <time>2022-06-24T10:05:30Z</time>
      </trkpt>
      <trkpt lat="42.30847" lon="2.63103">
        <ele>1060</ele>
        <time>2022-06-24T10:06:36Z</time>
      </trkpt>
      <trkpt lat="42.30831" lon="2.63124">
        <ele>1054</ele>
        <time>2022-06-24T10:07:48Z</time>
      </trkpt>
      <trkpt lat="42.30818" lon="2.63149">
        <ele>1038</ele>
        <time>2022-06-24T10:08:30Z</time>
      </trkpt>
      <trkpt lat="42.30804" lon="2.63174">
        <ele>1035</ele>
        <time>2022-06-24T10:09:30Z</time>
      </trkpt>
      <trkpt lat="42.30782" lon="2.63177">
        <ele>1007</ele>
        <time>2022-06-24T10:11:54Z</time>
      </trkpt>
      <trkpt lat="42.30761" lon="2.63164">
        <ele>1009</ele>
        <time>2022-06-24T10:12:38Z</time>
      </trkpt>
      <trkpt lat="42.30739" lon="2.63157">
        <ele>1007</ele>
        <time>2022-06-24T10:13:13Z</time>
      </trkpt>
      <trkpt lat="42.30732" lon="2.63186">
        <ele>995</ele>
        <time>2022-06-24T10:13:59Z</time>
      </trkpt>
      <trkpt lat="42.3074" lon="2.63214">
        <ele>984</ele>
        <time>2022-06-24T10:14:41Z</time>
      </trkpt>
      <trkpt lat="42.30748" lon="2.63244">
        <ele>979</ele>
        <time>2022-06-24T10:15:12Z</time>
      </trkpt>
      <trkpt lat="42.3073" lon="2.63262">
        <ele>979</ele>
        <time>2022-06-24T10:15:59Z</time>
      </trkpt>
      <trkpt lat="42.30749" lon="2.6328">
        <ele>977</ele>
        <time>2022-06-24T10:16:34Z</time>
      </trkpt>
      <trkpt lat="42.30765" lon="2.63302">
        <ele>977</ele>
        <time>2022-06-24T10:16:59Z</time>
      </trkpt>
      <trkpt lat="42.30783" lon="2.63321">
        <ele>972</ele>
        <time>2022-06-24T10:17:29Z</time>
      </trkpt>
      <trkpt lat="42.308" lon="2.63342">
        <ele>964</ele>
        <time>2022-06-24T10:17:53Z</time>
      </trkpt>
      <trkpt lat="42.30816" lon="2.63364">
        <ele>956</ele>
        <time>2022-06-24T10:18:22Z</time>
      </trkpt>
      <trkpt lat="42.30808" lon="2.63393">
        <ele>952</ele>
        <time>2022-06-24T10:18:58Z</time>
      </trkpt>
      <trkpt lat="42.3081" lon="2.63424">
        <ele>950</ele>
        <time>2022-06-24T10:19:20Z</time>
      </trkpt>
      <trkpt lat="42.30819" lon="2.63452">
        <ele>948</ele>
        <time>2022-06-24T10:19:39Z</time>
      </trkpt>
      <trkpt lat="42.3084" lon="2.63507">
        <ele>946</ele>
        <time>2022-06-24T10:20:59Z</time>
      </trkpt>
      <trkpt lat="42.30848" lon="2.63536">
        <ele>946</ele>
        <time>2022-06-24T10:21:20Z</time>
      </trkpt>
      <trkpt lat="42.30861" lon="2.63561">
        <ele>946</ele>
        <time>2022-06-24T10:21:42Z</time>
      </trkpt>
      <trkpt lat="42.30878" lon="2.63584">
        <ele>938</ele>
        <time>2022-06-24T10:22:03Z</time>
      </trkpt>
      <trkpt lat="42.30898" lon="2.63598">
        <ele>933</ele>
        <time>2022-06-24T10:22:23Z</time>
      </trkpt>
      <trkpt lat="42.3093" lon="2.63642">
        <ele>928</ele>
        <time>2022-06-24T10:23:02Z</time>
      </trkpt>
      <trkpt lat="42.30944" lon="2.63667">
        <ele>931</ele>
        <time>2022-06-24T10:23:57Z</time>
      </trkpt>
      <trkpt lat="42.30955" lon="2.63694">
        <ele>934</ele>
        <time>2022-06-24T10:24:31Z</time>
      </trkpt>
      <trkpt lat="42.30964" lon="2.63723">
        <ele>938</ele>
        <time>2022-06-24T10:25:27Z</time>
      </trkpt>
      <trkpt lat="42.3098" lon="2.63744">
        <ele>936</ele>
        <time>2022-06-24T10:25:55Z</time>
      </trkpt>
      <trkpt lat="42.30987" lon="2.63773">
        <ele>932</ele>
        <time>2022-06-24T10:26:47Z</time>
      </trkpt>
      <trkpt lat="42.30995" lon="2.63802">
        <ele>933</ele>
        <time>2022-06-24T10:27:30Z</time>
      </trkpt>
      <trkpt lat="42.31" lon="2.63832">
        <ele>929</ele>
        <time>2022-06-24T10:28:14Z</time>
      </trkpt>
      <trkpt lat="42.3101" lon="2.63861">
        <ele>922</ele>
        <time>2022-06-24T10:28:39Z</time>
      </trkpt>
      <trkpt lat="42.31011" lon="2.63891">
        <ele>916</ele>
        <time>2022-06-24T10:29:08Z</time>
      </trkpt>
      <trkpt lat="42.31022" lon="2.63918">
        <ele>911</ele>
        <time>2022-06-24T10:29:58Z</time>
      </trkpt>
      <trkpt lat="42.31022" lon="2.63949">
        <ele>903</ele>
        <time>2022-06-24T10:30:52Z</time>
      </trkpt>
      <trkpt lat="42.31022" lon="2.6398">
        <ele>881</ele>
        <time>2022-06-24T10:32:01Z</time>
      </trkpt>
      <trkpt lat="42.31044" lon="2.63987">
        <ele>879</ele>
        <time>2022-06-24T10:32:31Z</time>
      </trkpt>
      <trkpt lat="42.31065" lon="2.63999">
        <ele>880</ele>
        <time>2022-06-24T10:32:53Z</time>
      </trkpt>
      <trkpt lat="42.31074" lon="2.64027">
        <ele>878</ele>
        <time>2022-06-24T10:33:36Z</time>
      </trkpt>
      <trkpt lat="42.31082" lon="2.64057">
        <ele>876</ele>
        <time>2022-06-24T10:34:01Z</time>
      </trkpt>
      <trkpt lat="42.31083" lon="2.64087">
        <ele>856</ele>
        <time>2022-06-24T10:35:09Z</time>
      </trkpt>
      <trkpt lat="42.3108" lon="2.64117">
        <ele>860</ele>
        <time>2022-06-24T10:35:54Z</time>
      </trkpt>
      <trkpt lat="42.31085" lon="2.64147">
        <ele>842</ele>
        <time>2022-06-24T10:37:51Z</time>
      </trkpt>
      <trkpt lat="42.31098" lon="2.64173">
        <ele>836</ele>
        <time>2022-06-24T10:39:30Z</time>
      </trkpt>
      <trkpt lat="42.31104" lon="2.64204">
        <ele>836</ele>
        <time>2022-06-24T10:39:54Z</time>
      </trkpt>
      <trkpt lat="42.31111" lon="2.64233">
        <ele>835</ele>
        <time>2022-06-24T10:40:23Z</time>
      </trkpt>
      <trkpt lat="42.3112" lon="2.64261">
        <ele>830</ele>
        <time>2022-06-24T10:40:52Z</time>
      </trkpt>
      <trkpt lat="42.31132" lon="2.64287">
        <ele>824</ele>
        <time>2022-06-24T10:41:27Z</time>
      </trkpt>
      <trkpt lat="42.31142" lon="2.64314">
        <ele>823</ele>
        <time>2022-06-24T10:41:58Z</time>
      </trkpt>
      <trkpt lat="42.31119" lon="2.64315">
        <ele>815</ele>
        <time>2022-06-24T10:43:43Z</time>
      </trkpt>
      <trkpt lat="42.31092" lon="2.64263">
        <ele>815</ele>
        <time>2022-06-24T10:44:25Z</time>
      </trkpt>
    </trkseg>
  </trk>
</gpx>